createdAt,value
2022-11-16T00:02:36.670Z,42.15
2022-11-16T00:05:39.991Z,41.37
2022-11-16T00:08:45.983Z,42.40
2022-11-16T00:11:55.696Z,40.33
2022-11-16T00:14:58.875Z,42.85
2022-11-16T00:18:01.992Z,40.47
2022-11-16T00:21:06.471Z,40.83
2022-11-16T00:24:12.670Z,42.08
2022-11-16T00:27:15.911Z,41.05
2022-11-16T00:30:19.199Z,39.95
2022-11-16T00:33:22.367Z,42.25
2022-11-16T00:36:25.704Z,40.03
2022-11-16T00:39:28.799Z,41.53
2022-11-16T00:42:31.875Z,39.22
2022-11-16T00:45:35.057Z,37.95
2022-11-16T00:48:38.660Z,37.30
2022-11-16T00:51:42.111Z,37.53
2022-11-16T00:54:46.135Z,36.33
2022-11-16T00:57:49.701Z,36.90
2022-11-16T01:00:55.659Z,35.03
2022-11-16T01:04:00.787Z,36.60
2022-11-16T01:07:04.617Z,35.23
2022-11-16T01:10:17.047Z,37.08
2022-11-16T01:13:20.229Z,37.67
2022-11-16T01:16:24.485Z,38.28
2022-11-16T01:19:27.781Z,42.97
2022-11-16T01:22:30.923Z,42.27
2022-11-16T01:25:34.052Z,41.30
2022-11-16T01:28:37.463Z,41.80
2022-11-16T01:31:40.839Z,40.25
2022-11-16T01:34:44.251Z,40.75
2022-11-16T01:38:08.418Z,40.87
2022-11-16T01:41:17.479Z,36.67
2022-11-16T01:44:34.595Z,38.55
2022-11-16T01:47:53.022Z,39.15
2022-11-16T01:50:58.540Z,39.05
2022-11-16T01:54:07.135Z,34.93
2022-11-16T01:57:16.355Z,36.37
2022-11-16T02:00:28.246Z,36.15
2022-11-16T02:03:45.679Z,35.63
2022-11-16T02:07:14.037Z,36.25
2022-11-16T02:10:45.283Z,34.83
2022-11-16T02:14:23.566Z,33.92
2022-11-16T02:17:45.143Z,33.28
2022-11-16T02:21:19.035Z,31.45
2022-11-16T02:24:42.615Z,32.97
2022-11-16T02:27:57.593Z,32.63
2022-11-16T02:31:04.560Z,32.58
2022-11-16T02:34:12.527Z,33.55
2022-11-16T02:37:22.459Z,33.22
2022-11-16T02:40:31.935Z,32.78
2022-11-16T02:43:40.327Z,32.27
2022-11-16T02:46:46.829Z,33.63
2022-11-16T02:49:59.430Z,34.58
2022-11-16T02:53:04.803Z,32.67
2022-11-16T02:56:13.618Z,31.63
2022-11-16T02:59:17.951Z,33.53
2022-11-16T03:02:44.786Z,32.92
2022-11-16T03:05:58.168Z,32.70
2022-11-16T03:09:11.175Z,32.20
2022-11-16T03:12:19.963Z,30.77
2022-11-16T03:15:23.813Z,31.77
2022-11-16T03:18:32.218Z,33.03
2022-11-16T03:21:56.362Z,30.65
2022-11-16T03:25:00.347Z,31.45
2022-11-16T03:28:29.269Z,31.40
2022-11-16T03:31:46.043Z,30.70
2022-11-16T03:35:00.438Z,30.83
2022-11-16T03:38:07.719Z,31.40
2022-11-16T03:41:13.615Z,32.50
2022-11-16T03:44:19.214Z,31.75
2022-11-16T03:47:23.008Z,30.10
2022-11-16T03:50:27.199Z,31.92
2022-11-16T03:53:30.398Z,31.77
2022-11-16T03:56:33.775Z,32.35
2022-11-16T03:59:36.908Z,33.30
2022-11-16T04:02:40.157Z,31.50
2022-11-16T04:06:03.127Z,32.13
2022-11-16T04:09:24.753Z,32.63
2022-11-16T04:12:46.441Z,33.20
2022-11-16T04:16:08.030Z,31.95
2022-11-16T04:19:29.900Z,32.07
2022-11-16T04:22:58.010Z,31.88
2022-11-16T04:26:01.941Z,31.52
2022-11-16T04:29:05.578Z,32.10
2022-11-16T04:32:28.762Z,31.30
2022-11-16T04:35:50.701Z,30.97
2022-11-16T04:38:54.054Z,33.20
2022-11-16T04:42:15.493Z,31.50
2022-11-16T04:45:40.115Z,33.00
2022-11-16T04:48:46.075Z,33.13
2022-11-16T04:51:49.344Z,33.33
2022-11-16T04:54:52.569Z,32.58
2022-11-16T04:57:55.795Z,32.55
2022-11-16T05:01:00.716Z,31.75
2022-11-16T05:04:04.778Z,32.42
2022-11-16T05:07:13.450Z,31.30
2022-11-16T05:10:18.359Z,32.85
2022-11-16T05:13:21.971Z,29.65
2022-11-16T05:16:26.926Z,28.83
2022-11-16T05:19:48.699Z,27.80
2022-11-16T05:22:58.950Z,29.33
2022-11-16T05:26:12.819Z,28.48
2022-11-16T05:29:16.467Z,29.38
2022-11-16T05:32:21.057Z,28.73
2022-11-16T05:35:25.111Z,28.95
2022-11-16T05:38:28.657Z,29.90
2022-11-16T05:41:34.789Z,29.42
2022-11-16T05:44:39.148Z,29.20
2022-11-16T05:47:42.906Z,27.30
2022-11-16T05:50:46.113Z,28.13
2022-11-16T05:53:56.726Z,30.10
2022-11-16T05:57:00.651Z,28.70
2022-11-16T06:00:05.510Z,29.40
2022-11-16T06:03:18.155Z,28.08
2022-11-16T06:06:21.718Z,26.00
2022-11-16T06:09:26.651Z,26.57
2022-11-16T06:12:31.570Z,26.38
2022-11-16T06:15:38.474Z,26.48
2022-11-16T06:18:45.603Z,24.55
2022-11-16T06:21:50.808Z,25.52
2022-11-16T06:24:56.975Z,27.03
2022-11-16T06:28:12.296Z,26.00
2022-11-16T06:31:22.148Z,25.20
2022-11-16T06:34:26.105Z,24.45
2022-11-16T06:37:29.406Z,24.70
2022-11-16T06:40:33.182Z,25.17
2022-11-16T06:43:38.202Z,24.90
2022-11-16T06:46:42.201Z,25.23
2022-11-16T06:49:47.123Z,26.35
2022-11-16T06:52:56.123Z,25.67
2022-11-16T06:56:04.752Z,26.60
2022-11-16T06:59:12.499Z,25.02
2022-11-16T07:02:16.271Z,23.10
2022-11-16T07:05:21.134Z,25.27
2022-11-16T07:08:52.457Z,23.77
2022-11-16T07:12:23.938Z,23.07
2022-11-16T07:15:28.595Z,22.35
2022-11-16T07:18:39.636Z,23.10
2022-11-16T07:21:55.532Z,22.90
2022-11-16T07:24:59.448Z,22.85
2022-11-16T07:28:04.683Z,22.00
2022-11-16T07:31:11.471Z,22.33
2022-11-16T07:34:14.774Z,25.92
2022-11-16T07:37:31.422Z,21.60
2022-11-16T07:40:35.100Z,22.52
2022-11-16T07:43:40.094Z,22.67
2022-11-16T07:46:52.223Z,23.50
2022-11-16T07:49:55.574Z,22.50
2022-11-16T07:53:02.507Z,23.92
2022-11-16T07:56:07.091Z,23.33
2022-11-16T07:59:10.806Z,23.33
2022-11-16T08:02:19.114Z,23.50
2022-11-16T08:05:23.147Z,23.00
2022-11-16T08:08:27.701Z,23.45
2022-11-16T08:11:35.548Z,22.45
2022-11-16T08:14:42.717Z,22.53
2022-11-16T08:17:54.750Z,20.83
2022-11-16T08:21:02.321Z,22.75
2022-11-16T08:24:06.375Z,21.20
2022-11-16T08:27:17.500Z,21.33
2022-11-16T08:30:24.249Z,21.93
2022-11-16T08:33:30.208Z,21.47
2022-11-16T08:36:35.175Z,22.20
2022-11-16T08:39:39.672Z,20.90
2022-11-16T08:42:44.748Z,22.50
2022-11-16T08:45:50.185Z,21.30
2022-11-16T08:48:58.307Z,22.13
2022-11-16T08:52:02.099Z,21.90
2022-11-16T08:55:07.171Z,21.15
2022-11-16T08:58:11.164Z,20.52
2022-11-16T09:01:21.909Z,21.03
2022-11-16T09:04:25.302Z,21.17
2022-11-16T09:07:28.714Z,21.17
2022-11-16T09:10:35.673Z,21.38
2022-11-16T09:13:39.665Z,21.35
2022-11-16T09:16:42.987Z,20.83
2022-11-16T09:19:49.276Z,21.27
2022-11-16T09:22:53.087Z,21.45
2022-11-16T09:26:00.338Z,20.95
2022-11-16T09:29:04.415Z,21.75
2022-11-16T09:32:10.428Z,20.07
2022-11-16T09:35:18.356Z,20.27
2022-11-16T09:38:30.543Z,21.58
2022-11-16T09:42:06.682Z,19.92
2022-11-16T09:45:35.863Z,20.95
2022-11-16T09:48:41.598Z,19.67
2022-11-16T09:51:48.334Z,20.70
2022-11-16T09:54:53.472Z,21.23
2022-11-16T09:57:59.860Z,21.52
2022-11-16T10:01:21.187Z,20.55
2022-11-16T10:04:43.974Z,21.33
2022-11-16T10:07:51.094Z,21.00
2022-11-16T10:11:20.242Z,20.33
2022-11-16T10:14:55.096Z,20.00
2022-11-16T10:18:21.392Z,19.77
2022-11-16T10:21:35.119Z,21.17
2022-11-16T10:24:58.569Z,20.53
2022-11-16T10:28:14.420Z,20.52
2022-11-16T10:31:43.883Z,20.15
2022-11-16T10:35:03.461Z,20.38
2022-11-16T10:38:17.731Z,20.77
2022-11-16T10:41:25.909Z,20.53
2022-11-16T10:44:42.117Z,19.90
2022-11-16T10:47:51.318Z,19.10
2022-11-16T10:51:01.444Z,21.40
2022-11-16T10:54:23.924Z,21.60
2022-11-16T10:58:01.771Z,20.17
2022-11-16T11:01:11.139Z,20.38
2022-11-16T11:04:28.016Z,20.80
2022-11-16T11:07:44.113Z,19.90
2022-11-16T11:11:02.004Z,18.37
2022-11-16T11:14:12.054Z,19.67
2022-11-16T11:17:18.990Z,19.38
2022-11-16T11:20:24.622Z,19.88
2022-11-16T11:24:29.332Z,20.02
2022-11-16T11:27:28.258Z,19.93
2022-11-16T11:30:40.249Z,20.73
2022-11-16T11:33:51.153Z,19.92
2022-11-16T11:37:05.441Z,20.15
2022-11-16T11:40:30.600Z,20.48
2022-11-16T11:43:34.984Z,19.37
2022-11-16T11:47:18.636Z,19.17
2022-11-16T11:50:32.344Z,21.63
2022-11-16T11:53:47.700Z,19.88
2022-11-16T11:56:51.237Z,19.92
2022-11-16T11:59:55.371Z,19.40
2022-11-16T12:03:18.244Z,20.63
2022-11-16T12:06:51.722Z,19.58
2022-11-16T12:10:25.886Z,20.38
2022-11-16T12:13:49.320Z,20.48
2022-11-16T12:17:03.868Z,19.87
2022-11-16T12:20:28.071Z,20.70
2022-11-16T12:23:34.588Z,20.58
2022-11-16T12:27:13.019Z,20.80
2022-11-16T12:30:23.545Z,22.05
2022-11-16T12:33:53.195Z,20.57
2022-11-16T12:37:02.303Z,21.97
2022-11-16T12:40:18.367Z,22.35
2022-11-16T12:43:40.577Z,22.48
2022-11-16T12:46:58.716Z,23.35
2022-11-16T12:50:25.898Z,21.87
2022-11-16T12:53:49.062Z,23.13
2022-11-16T12:57:24.055Z,22.85
2022-11-16T13:00:28.950Z,23.30
2022-11-16T13:03:37.275Z,23.20
2022-11-16T13:06:47.060Z,23.97
2022-11-16T13:09:57.424Z,22.83
2022-11-16T13:13:34.971Z,24.70
2022-11-16T13:16:30.113Z,23.67
2022-11-16T13:19:42.332Z,25.27
2022-11-16T13:23:17.721Z,24.40
2022-11-16T13:26:40.821Z,23.63
2022-11-16T13:30:20.389Z,23.70
2022-11-16T13:33:46.265Z,24.02
2022-11-16T13:36:54.034Z,24.67
2022-11-16T13:39:58.374Z,23.83
2022-11-16T13:43:17.159Z,25.80
2022-11-16T13:46:48.802Z,27.30
2022-11-16T13:49:53.377Z,25.45
2022-11-16T13:56:50.002Z,27.73
2022-11-16T14:00:02.200Z,27.57
2022-11-16T14:03:16.019Z,28.83
2022-11-16T14:06:25.127Z,27.85
2022-11-16T14:09:49.224Z,27.40
2022-11-16T14:12:54.416Z,27.13
2022-11-16T14:16:21.768Z,25.57
2022-11-16T14:19:47.701Z,26.25
2022-11-16T14:23:07.777Z,27.02
2022-11-16T14:26:32.710Z,27.10
2022-11-16T14:29:44.826Z,27.73
2022-11-16T14:32:51.215Z,26.37
2022-11-16T14:35:55.750Z,26.55
2022-11-16T14:39:35.304Z,28.10
2022-11-16T14:43:15.540Z,26.55
2022-11-16T14:46:29.256Z,25.80
2022-11-16T14:49:36.011Z,27.33
2022-11-16T14:52:44.077Z,25.95
2022-11-16T14:55:47.320Z,26.38
2022-11-16T14:58:56.040Z,25.92
2022-11-16T15:02:12.210Z,27.77
2022-11-16T15:05:18.814Z,26.27
2022-11-16T15:08:26.790Z,27.55
2022-11-16T15:11:57.810Z,27.25
2022-11-16T15:15:10.028Z,26.58
2022-11-16T15:18:18.701Z,26.57
2022-11-16T15:21:23.561Z,28.03
2022-11-16T15:24:31.122Z,27.98
2022-11-16T15:27:42.913Z,28.42
2022-11-16T15:30:54.731Z,28.35
2022-11-16T15:33:57.905Z,30.17
2022-11-16T15:37:01.102Z,29.00
2022-11-16T15:40:04.802Z,28.73
2022-11-16T15:43:11.151Z,28.77
2022-11-16T15:46:15.104Z,29.67
2022-11-16T15:49:26.935Z,30.87
2022-11-16T15:52:54.578Z,29.63
2022-11-16T15:55:57.900Z,30.30
2022-11-16T15:59:09.582Z,28.75
2022-11-16T16:02:30.231Z,27.92
2022-11-16T16:05:40.938Z,28.00
2022-11-16T16:08:45.188Z,27.98
2022-11-16T16:11:48.551Z,29.00
2022-11-16T16:14:52.875Z,28.38
2022-11-16T16:17:57.718Z,29.52
2022-11-16T16:21:03.256Z,28.47
2022-11-16T16:24:08.094Z,28.63
2022-11-16T16:27:18.193Z,26.67
2022-11-16T16:30:28.795Z,27.23
2022-11-16T16:33:36.451Z,26.38
2022-11-16T16:36:40.042Z,26.87
2022-11-16T16:39:44.747Z,24.87
2022-11-16T16:42:48.399Z,24.13
2022-11-16T16:45:51.838Z,22.95
2022-11-16T16:48:55.173Z,21.42
2022-11-16T16:51:58.652Z,21.63
2022-11-16T16:55:02.019Z,21.13
2022-11-16T16:58:06.287Z,22.13
2022-11-16T17:01:10.849Z,19.48
2022-11-16T17:04:14.375Z,19.40
2022-11-16T17:07:23.555Z,20.03
2022-11-16T17:10:27.378Z,18.97
2022-11-16T17:13:30.669Z,20.33
2022-11-16T17:16:34.510Z,19.30
2022-11-16T17:19:37.652Z,20.38
2022-11-16T17:22:41.961Z,20.30
2022-11-16T17:25:45.470Z,21.73
2022-11-16T17:28:48.900Z,20.42
2022-11-16T17:31:52.407Z,19.92
2022-11-16T17:34:57.231Z,19.25
2022-11-16T17:38:00.649Z,19.20
2022-11-16T17:41:10.705Z,19.87
2022-11-16T17:44:20.160Z,20.08
2022-11-16T17:47:25.060Z,20.23
2022-11-16T17:50:28.537Z,20.08
2022-11-16T17:53:35.115Z,19.60
2022-11-16T17:56:38.758Z,18.53
2022-11-16T17:59:42.288Z,18.95
2022-11-16T18:02:45.554Z,19.15
2022-11-16T18:05:48.947Z,18.33
2022-11-16T18:08:53.416Z,18.67
2022-11-16T18:11:56.612Z,19.27
2022-11-16T18:15:26.358Z,19.52
2022-11-16T18:18:23.256Z,19.95
2022-11-16T18:21:27.341Z,19.85
2022-11-16T18:24:31.047Z,19.63
2022-11-16T18:27:34.476Z,19.10
2022-11-16T18:30:39.601Z,19.38
2022-11-16T18:33:43.781Z,18.83
2022-11-16T18:36:48.998Z,19.17
2022-11-16T18:39:52.208Z,19.93
2022-11-16T18:42:55.854Z,21.20
2022-11-16T18:45:59.350Z,19.85
2022-11-16T18:49:02.906Z,20.38
2022-11-16T18:52:06.381Z,20.08
2022-11-16T18:55:09.890Z,20.43
2022-11-16T18:58:35.874Z,21.57
2022-11-16T19:01:37.271Z,20.73
2022-11-16T19:04:41.795Z,20.65
2022-11-16T19:07:45.211Z,22.30
2022-11-16T19:10:48.938Z,21.63
2022-11-16T19:13:57.634Z,21.20
2022-11-16T19:17:01.278Z,22.30
2022-11-16T19:20:05.180Z,21.60
2022-11-16T19:23:08.908Z,21.27
2022-11-16T19:26:13.684Z,20.33
2022-11-16T19:29:17.147Z,21.60
2022-11-16T19:32:21.362Z,21.63
2022-11-16T19:35:25.102Z,21.83
2022-11-16T19:38:30.032Z,22.02
2022-11-16T19:41:34.451Z,22.67
2022-11-16T19:44:37.810Z,21.13
2022-11-16T19:47:43.584Z,21.85
2022-11-16T19:50:47.009Z,21.73
2022-11-16T19:53:50.937Z,24.02
2022-11-16T19:56:55.348Z,23.20
2022-11-16T19:59:58.977Z,21.93
2022-11-16T20:03:02.662Z,22.27
2022-11-16T20:06:11.507Z,22.05
2022-11-16T20:09:15.303Z,23.33
2022-11-16T20:12:18.769Z,21.90
2022-11-16T20:15:25.251Z,22.60
2022-11-16T20:18:30.124Z,23.50
2022-11-16T20:21:41.723Z,22.45
2022-11-16T20:24:44.931Z,22.55
2022-11-16T20:27:48.335Z,22.63
2022-11-16T20:30:51.802Z,23.53
2022-11-16T20:34:05.907Z,25.40
2022-11-16T20:37:09.244Z,24.13
2022-11-16T20:40:13.202Z,25.88
2022-11-16T20:43:16.690Z,25.80
2022-11-16T20:46:22.422Z,26.27
2022-11-16T20:49:25.646Z,25.35
2022-11-16T20:52:28.942Z,25.98
2022-11-16T20:55:32.660Z,26.90
2022-11-16T20:58:36.514Z,26.97
2022-11-16T21:01:41.540Z,28.40
2022-11-16T21:04:44.668Z,28.45
2022-11-16T21:07:47.999Z,27.98
2022-11-16T21:10:51.597Z,28.92
2022-11-16T21:14:13.775Z,29.20
2022-11-16T21:17:16.940Z,28.93
2022-11-16T21:20:27.360Z,29.20
2022-11-16T21:23:33.646Z,30.02
2022-11-16T21:26:37.532Z,29.13
2022-11-16T21:29:40.940Z,28.13
2022-11-16T21:32:44.114Z,28.63
2022-11-16T21:35:47.343Z,28.58
2022-11-16T21:38:51.441Z,26.55
2022-11-16T21:41:54.664Z,25.40
2022-11-16T21:44:57.742Z,25.03
2022-11-16T21:48:00.969Z,25.37
2022-11-16T21:51:12.234Z,24.27
2022-11-16T21:54:15.516Z,24.02
2022-11-16T21:57:18.637Z,23.38
2022-11-16T22:00:21.944Z,23.67
2022-11-16T22:03:32.370Z,22.37
2022-11-16T22:06:54.485Z,24.00
2022-11-16T22:09:57.742Z,22.85
2022-11-16T22:13:01.238Z,21.40
2022-11-16T22:16:09.324Z,20.73
2022-11-16T22:19:12.491Z,20.73
2022-11-16T22:22:15.810Z,21.10
2022-11-16T22:25:19.119Z,21.13
2022-11-16T22:28:22.439Z,19.88
2022-11-16T22:31:25.779Z,20.30
2022-11-16T22:34:28.932Z,21.60
2022-11-16T22:37:32.103Z,20.67
2022-11-16T22:40:35.252Z,19.30
2022-11-16T22:43:39.119Z,19.02
2022-11-16T22:46:42.539Z,17.83
2022-11-16T22:49:45.827Z,18.43
2022-11-16T22:52:48.912Z,17.67
2022-11-16T22:55:52.055Z,17.92
2022-11-16T22:58:55.496Z,17.30
2022-11-16T23:01:58.708Z,17.73
2022-11-16T23:05:01.849Z,15.93
2022-11-16T23:08:05.188Z,16.02
2022-11-16T23:11:32.153Z,16.55
2022-11-16T23:14:54.048Z,15.70
2022-11-16T23:17:57.413Z,14.40
2022-11-16T23:21:19.214Z,13.43
2022-11-16T23:24:41.074Z,12.45
2022-11-16T23:28:08.747Z,13.02
2022-11-16T23:31:12.044Z,11.30
2022-11-16T23:34:15.282Z,11.03
2022-11-16T23:37:18.475Z,9.97
2022-11-16T23:40:23.820Z,9.45
2022-11-16T23:43:45.552Z,9.25
2022-11-16T23:46:48.670Z,7.97
2022-11-16T23:49:51.877Z,6.27
2022-11-16T23:52:55.142Z,6.80
2022-11-16T23:56:05.945Z,6.38
2022-11-16T23:59:09.625Z,5.65
